Time;durP1;ratioP1;P1;durP2;ratioP2;P2;SDS_P1;SDS_P2;PMS_P1;PMS_P2;Temp;Humidity;BMP_temperature;BMP_pressure;BME280_temperature;BME280_humidity;BME280_pressure;Samples;Min_cycle;Max_cycle;Signal;HPM_P1;HPM_P2
2022/09/20 00:00:40;;;;;;;8.85;5.35;;;;;;;11.20;100.00;101971.13;5002422;28;20034;-74
2022/09/20 00:03:06;;;;;;;9.68;5.10;;;;;;;11.15;100.00;101968.88;4968853;28;20038;-76
2022/09/20 00:05:36;;;;;;;11.27;5.10;;;;;;;11.17;100.00;101984.88;4992238;28;20479;-77
2022/09/20 00:08:03;;;;;;;11.77;4.93;;;;;;;11.19;100.00;101982.88;4997892;28;20475;-76
2022/09/20 00:10:30;;;;;;;9.13;5.32;;;;;;;11.15;100.00;101990.41;5007146;28;20049;-74
2022/09/20 00:12:56;;;;;;;7.70;5.07;;;;;;;11.11;100.00;101982.78;5005745;28;20033;-74
2022/09/20 00:15:22;;;;;;;7.00;4.80;;;;;;;11.04;100.00;101979.84;4977315;28;20048;-74
2022/09/20 00:17:47;;;;;;;7.60;4.68;;;;;;;10.97;100.00;101982.28;5007533;28;20037;-76
2022/09/20 00:20:13;;;;;;;7.15;4.47;;;;;;;10.79;100.00;101959.84;4987007;28;20040;-74
2022/09/20 00:22:39;;;;;;;7.30;4.28;;;;;;;10.76;100.00;101973.59;4989444;28;20026;-74
2022/09/20 00:25:05;;;;;;;9.70;5.07;;;;;;;10.68;100.00;101976.16;4991964;28;20532;-74
2022/09/20 00:27:31;;;;;;;7.40;4.68;;;;;;;10.60;100.00;101971.50;4987910;28;20064;-74
2022/09/20 00:29:58;;;;;;;8.10;4.20;;;;;;;10.48;100.00;101968.16;4988428;28;20461;-74
2022/09/20 00:32:23;;;;;;;7.85;4.35;;;;;;;10.38;100.00;101970.03;4987982;28;20561;-74
2022/09/20 00:35:07;;;;;;;6.22;4.32;;;;;;;10.29;100.00;101973.56;4973803;28;20041;-74
2022/09/20 00:37:33;;;;;;;6.55;3.92;;;;;;;10.19;100.00;101970.88;4994303;28;20124;-74
2022/09/20 00:40:00;;;;;;;6.80;4.43;;;;;;;10.11;100.00;101968.91;4973363;28;20035;-73
2022/09/20 00:42:29;;;;;;;10.65;4.85;;;;;;;9.95;100.00;101955.19;4991457;28;20040;-75
2022/09/20 00:44:59;;;;;;;9.73;4.72;;;;;;;9.93;100.00;101957.19;5011424;28;20034;-75
2022/09/20 00:47:39;;;;;;;11.65;5.10;;;;;;;9.81;100.00;101961.81;4994381;28;20069;-74
2022/09/20 00:50:30;;;;;;;11.32;4.60;;;;;;;9.77;100.00;101967.66;5009142;28;20192;-74
2022/09/20 00:53:01;;;;;;;7.38;4.10;;;;;;;9.55;100.00;101950.81;4991598;28;20395;-74
2022/09/20 00:55:27;;;;;;;6.20;4.38;;;;;;;9.54;100.00;101970.59;4996906;28;20041;-74
2022/09/20 00:57:53;;;;;;;8.95;4.70;;;;;;;9.38;100.00;101959.53;4994137;28;20030;-74
2022/09/20 01:00:20;;;;;;;7.10;4.72;;;;;;;9.25;100.00;101968.69;4991926;28;20060;-74
2022/09/20 01:02:49;;;;;;;7.90;4.70;;;;;;;9.09;100.00;101971.03;4986009;28;20069;-74
2022/09/20 01:05:16;;;;;;;6.32;4.57;;;;;;;9.03;100.00;101976.97;4986998;28;20049;-75
2022/09/20 01:07:43;;;;;;;8.13;4.22;;;;;;;8.97;100.00;101977.50;5005303;28;20045;-74
2022/09/20 01:10:08;;;;;;;6.88;4.63;;;;;;;8.87;100.00;101973.94;5000802;28;20037;-74
2022/09/20 01:12:35;;;;;;;6.13;4.10;;;;;;;8.72;100.00;101976.13;4990331;28;20527;-73
2022/09/20 01:15:05;;;;;;;6.40;4.55;;;;;;;8.63;100.00;101977.78;4983659;28;20129;-73
2022/09/20 01:17:32;;;;;;;5.85;4.72;;;;;;;8.50;100.00;101977.16;4974307;28;20050;-73
2022/09/20 01:20:09;;;;;;;9.18;4.80;;;;;;;8.49;100.00;101989.69;4976286;28;20045;-76
2022/09/20 01:22:48;;;;;;;9.82;4.85;;;;;;;8.41;100.00;101991.31;4994343;28;20589;-73
2022/09/20 01:25:18;;;;;;;7.20;4.30;;;;;;;8.35;100.00;101981.94;5003263;28;20041;-74
2022/09/20 01:27:48;;;;;;;6.55;4.78;;;;;;;8.33;100.00;101987.44;5005487;28;20096;-74
2022/09/20 01:30:20;;;;;;;6.55;4.05;;;;;;;8.28;100.00;101987.00;4984914;28;20129;-73
2022/09/20 01:32:58;;;;;;;6.10;4.10;;;;;;;8.30;100.00;101986.84;5002031;28;20476;-73
2022/09/20 01:35:26;;;;;;;5.15;4.20;;;;;;;8.29;100.00;101983.34;4988946;28;20472;-74
2022/09/20 01:38:11;;;;;;;5.65;3.85;;;;;;;8.38;100.00;101982.53;4979243;28;20306;-74
2022/09/20 01:40:58;;;;;;;6.22;3.35;;;;;;;8.50;100.00;101986.03;5002842;28;21895;-74
2022/09/20 01:43:53;;;;;;;5.65;3.47;;;;;;;8.59;100.00;101984.38;4999150;28;20527;-75
2022/09/20 01:46:39;;;;;;;7.85;4.35;;;;;;;8.71;100.00;101980.66;4995569;28;20038;-75
2022/09/20 01:49:08;;;;;;;9.35;3.95;;;;;;;8.73;100.00;101970.66;5013886;28;20552;-75
2022/09/20 01:52:07;;;;;;;5.88;3.72;;;;;;;8.92;100.00;101982.44;5001379;28;20038;-74
2022/09/20 01:54:36;;;;;;;7.68;4.18;;;;;;;9.01;100.00;101981.63;4983912;28;20064;-74
2022/09/20 01:57:32;;;;;;;9.75;4.57;;;;;;;9.09;100.00;101981.78;5009033;28;20030;-73
2022/09/20 02:00:09;;;;;;;7.55;4.03;;;;;;;9.18;100.00;101982.78;5005382;28;20034;-73
2022/09/20 02:02:44;;;;;;;6.25;4.45;;;;;;;9.22;100.00;101973.50;4971688;28;20122;-74
2022/09/20 02:05:18;;;;;;;8.43;5.32;;;;;;;9.28;100.00;101978.31;4998665;28;20042;-76
2022/09/20 02:07:48;;;;;;;7.47;5.13;;;;;;;9.29;100.00;101980.00;5011317;28;20041;-74
2022/09/20 02:10:32;;;;;;;10.52;5.20;;;;;;;9.30;100.00;101976.34;5005493;28;20563;-75
2022/09/20 02:13:19;;;;;;;6.10;4.30;;;;;;;9.28;100.00;101972.94;5003545;28;20037;-75
2022/09/20 02:16:12;;;;;;;7.90;5.15;;;;;;;9.34;100.00;101977.78;4984154;28;20049;-75
2022/09/20 02:19:03;;;;;;;9.10;4.75;;;;;;;9.35;100.00;101974.09;4997481;28;20470;-74
2022/09/20 02:21:37;;;;;;;7.80;4.78;;;;;;;9.39;100.00;101975.53;5004203;28;20041;-74
2022/09/20 02:24:10;;;;;;;8.35;4.85;;;;;;;9.43;100.00;101970.72;4982893;28;20034;-75
2022/09/20 02:26:43;;;;;;;8.70;4.95;;;;;;;9.45;100.00;101966.91;4988348;28;20045;-74
2022/09/20 02:29:29;;;;;;;9.48;5.38;;;;;;;9.54;100.00;101964.38;4999715;28;20524;-75
2022/09/20 02:32:14;;;;;;;8.60;4.95;;;;;;;9.52;100.00;101956.44;4947772;28;20044;-75
2022/09/20 02:34:48;;;;;;;10.50;5.00;;;;;;;9.63;100.00;101959.03;5008748;28;20041;-76
2022/09/20 02:37:50;;;;;;;7.60;5.25;;;;;;;9.71;100.00;101962.81;4986497;28;20061;-75
2022/09/20 02:40:22;;;;;;;9.05;5.35;;;;;;;9.74;100.00;101963.41;4990110;28;20040;-74
2022/09/20 02:43:09;;;;;;;10.23;5.87;;;;;;;9.75;100.00;101961.56;5002612;28;20025;-75
2022/09/20 02:45:45;;;;;;;7.53;5.00;;;;;;;9.68;100.00;101953.19;5004701;28;20034;-74
2022/09/20 02:48:14;;;;;;;9.77;5.95;;;;;;;9.59;100.00;101946.84;4985176;28;20130;-75
2022/09/20 02:50:54;;;;;;;8.52;5.28;;;;;;;9.53;100.00;101947.41;5013540;28;20035;-75
2022/09/20 02:53:46;;;;;;;9.35;5.90;;;;;;;9.45;100.00;101950.78;4972111;28;20495;-75
2022/09/20 02:56:24;;;;;;;8.55;5.10;;;;;;;9.39;100.00;101946.00;4990144;28;20030;-74
2022/09/20 02:59:11;;;;;;;9.80;5.78;;;;;;;9.42;100.00;101950.19;5000852;28;20052;-75
2022/09/20 03:02:03;;;;;;;12.02;5.88;;;;;;;9.38;100.00;101956.84;4974192;28;20038;-75
2022/09/20 03:04:42;;;;;;;9.18;4.88;;;;;;;9.22;100.00;101936.75;4988568;28;20133;-75
2022/09/20 03:07:22;;;;;;;10.63;5.22;;;;;;;9.27;100.00;101954.31;4985522;28;20042;-75
2022/09/20 03:10:04;;;;;;;8.05;5.57;;;;;;;9.21;100.00;101945.81;5006378;28;20092;-76
2022/09/20 03:12:59;;;;;;;11.90;5.82;;;;;;;9.20;100.00;101951.31;5008679;28;20132;-75
2022/09/20 03:15:49;;;;;;;8.77;5.05;;;;;;;9.25;100.00;101949.91;4991216;28;20049;-74
2022/09/20 03:18:26;;;;;;;8.57;5.78;;;;;;;9.28;100.00;101953.31;5002237;28;20026;-76
2022/09/20 03:21:01;;;;;;;11.27;5.72;;;;;;;9.33;100.00;101945.69;4999848;28;20045;-75
2022/09/20 03:23:45;;;;;;;10.43;5.85;;;;;;;9.28;100.00;101931.81;5005784;28;20037;-75
2022/09/20 03:26:29;;;;;;;10.57;6.00;;;;;;;9.39;100.00;101942.44;5000670;28;20037;-74
2022/09/20 03:29:07;;;;;;;10.35;5.65;;;;;;;9.40;100.00;101930.72;5006751;28;20046;-75
2022/09/20 03:31:33;;;;;;;11.48;6.32;;;;;;;9.40;100.00;101930.72;4976047;28;21982;-73
2022/09/20 03:34:10;;;;;;;9.77;5.72;;;;;;;9.51;100.00;101935.13;5000704;28;20399;-74
2022/09/20 03:36:54;;;;;;;12.40;6.32;;;;;;;9.52;100.00;101936.81;5021821;28;20042;-77
2022/09/20 03:39:41;;;;;;;15.02;6.38;;;;;;;9.36;100.00;101902.44;5024768;28;20042;-76
2022/09/20 03:42:23;;;;;;;10.88;6.80;;;;;;;9.52;100.00;101928.75;5022226;28;20044;-75
2022/09/20 03:45:22;;;;;;;11.50;6.60;;;;;;;9.47;100.00;101918.41;4986190;28;20049;-74
2022/09/20 03:48:12;;;;;;;14.82;6.40;;;;;;;9.47;100.00;101921.09;5001465;28;20029;-76
2022/09/20 03:50:46;;;;;;;12.93;6.13;;;;;;;9.44;100.00;101921.38;5002971;28;20123;-76
2022/09/20 03:53:32;;;;;;;9.63;5.40;;;;;;;9.36;100.00;101926.63;4971664;28;20081;-75
2022/09/20 03:56:19;;;;;;;8.45;5.78;;;;;;;9.33;100.00;101924.22;4990144;28;20041;-75
2022/09/20 03:59:03;;;;;;;11.32;6.40;;;;;;;9.31;100.00;101926.19;5003900;28;20026;-75
2022/09/20 04:01:44;;;;;;;10.68;5.90;;;;;;;9.29;100.00;101928.16;5002783;28;20132;-76
2022/09/20 04:04:23;;;;;;;11.23;6.28;;;;;;;9.32;100.00;101923.38;4989516;28;20547;-75
2022/09/20 04:06:58;;;;;;;12.68;5.60;;;;;;;9.34;100.00;101925.91;4970012;28;20041;-76
2022/09/20 04:10:03;;;;;;;8.02;5.65;;;;;;;9.35;100.00;101916.88;5002930;28;20480;-76
2022/09/20 04:12:41;;;;;;;10.80;5.93;;;;;;;9.15;100.00;101873.88;4990412;28;20048;-75
2022/09/20 04:15:35;;;;;;;11.45;6.28;;;;;;;9.43;100.00;101922.38;4993620;28;20061;-75
2022/09/20 04:18:03;;;;;;;11.15;6.00;;;;;;;9.48;100.00;101920.13;5009864;28;20132;-76
2022/09/20 04:20:33;;;;;;;12.57;6.88;;;;;;;9.51;100.00;101919.84;4990883;28;20481;-73
2022/09/20 04:23:06;;;;;;;10.75;5.70;;;;;;;9.55;100.00;101917.72;5024063;28;20111;-76
2022/09/20 04:25:37;;;;;;;17.52;7.00;;;;;;;9.60;100.00;101921.69;5006794;28;20045;-74
2022/09/20 04:28:29;;;;;;;14.43;7.00;;;;;;;9.63;100.00;101921.41;4991569;28;20504;-75
2022/09/20 04:31:02;;;;;;;14.02;6.55;;;;;;;9.62;100.00;101914.34;4981676;28;20091;-76
2022/09/20 04:33:31;;;;;;;13.03;6.30;;;;;;;9.62;100.00;101908.97;4974531;28;20033;-75
2022/09/20 04:36:28;;;;;;;10.82;7.07;;;;;;;9.61;100.00;101912.66;4990495;28;20120;-77
2022/09/20 04:39:00;;;;;;;12.38;6.50;;;;;;;9.50;100.00;101901.19;5009403;28;20042;-75
2022/09/20 04:41:50;;;;;;;9.68;6.15;;;;;;;9.47;100.00;101910.38;4999795;28;20116;-76
2022/09/20 04:44:34;;;;;;;9.43;6.45;;;;;;;9.50;100.00;101917.28;4990575;28;20048;-75
2022/09/20 04:47:27;;;;;;;10.82;6.45;;;;;;;9.38;100.00;101914.75;5013830;28;20033;-75
2022/09/20 04:50:31;;;;;;;11.07;6.38;;;;;;;9.39;100.00;101920.97;4989186;28;20034;-75
2022/09/20 04:53:36;;;;;;;10.18;6.50;;;;;;;9.33;100.00;101914.31;5023530;28;20476;-75
2022/09/20 04:56:27;;;;;;;11.50;6.22;;;;;;;9.34;100.00;101920.53;5001965;28;20079;-75
2022/09/20 04:59:06;;;;;;;11.40;5.88;;;;;;;9.36;100.00;101918.56;4979940;28;20077;-75
2022/09/20 05:01:50;;;;;;;10.52;6.60;;;;;;;9.39;100.00;101919.16;4974606;28;20041;-75
2022/09/20 05:04:53;;;;;;;13.15;6.88;;;;;;;9.44;100.00;101913.34;4994585;28;20034;-74
2022/09/20 05:08:07;;;;;;;12.65;6.90;;;;;;;9.47;100.00;101910.38;5008454;28;20053;-75
2022/09/20 05:10:39;;;;;;;12.65;7.25;;;;;;;9.53;100.00;101915.19;5001034;28;20048;-75
2022/09/20 05:13:05;;;;;;;15.52;7.65;;;;;;;9.59;100.00;101919.16;4993561;28;20044;-75
2022/09/20 05:15:43;;;;;;;15.00;7.70;;;;;;;9.59;100.00;101903.88;5006536;28;20042;-75
2022/09/20 05:18:27;;;;;;;10.88;6.85;;;;;;;9.67;100.00;101911.22;4991154;28;20034;-75
2022/09/20 05:21:15;;;;;;;14.20;7.18;;;;;;;9.66;100.00;101906.88;5005875;28;20026;-75
2022/09/20 05:23:43;;;;;;;14.63;7.63;;;;;;;9.55;100.00;101897.13;5003375;28;20030;-75
2022/09/20 05:26:37;;;;;;;12.68;6.65;;;;;;;9.62;100.00;101918.88;5009015;28;20498;-76
2022/09/20 05:29:41;;;;;;;15.63;7.78;;;;;;;9.64;100.00;101925.78;4992458;28;20034;-75
2022/09/20 05:32:36;;;;;;;14.00;7.07;;;;;;;9.68;100.00;101920.97;4993750;28;20045;-76
2022/09/20 05:35:22;;;;;;;14.00;7.13;;;;;;;9.70;100.00;101913.63;4974276;28;20042;-76
2022/09/20 05:38:04;;;;;;;15.30;7.32;;;;;;;9.67;100.00;101917.44;5000080;28;20471;-75
2022/09/20 05:41:07;;;;;;;17.02;7.53;;;;;;;9.57;100.00;101903.16;4988021;28;20041;-75
2022/09/20 05:43:55;;;;;;;15.13;7.65;;;;;;;9.52;100.00;101916.16;4953890;28;21110;-75
2022/09/20 05:46:36;;;;;;;14.18;7.53;;;;;;;9.39;100.00;101913.78;4990550;28;20316;-74
2022/09/20 05:49:49;;;;;;;15.13;7.50;;;;;;;9.39;100.00;101921.84;5008170;28;20045;-74
2022/09/20 05:52:18;;;;;;;13.80;7.32;;;;;;;9.31;100.00;101924.34;4926190;29;20048;-75
2022/09/20 05:54:50;;;;;;;15.82;8.45;;;;;;;9.29;100.00;101920.97;4923900;28;20502;-75
2022/09/20 05:57:31;;;;;;;14.27;7.63;;;;;;;9.24;100.00;101920.53;4952223;28;20046;-76
2022/09/20 05:59:57;;;;;;;14.88;7.60;;;;;;;9.20;100.00;101930.69;4999320;28;20037;-78
2022/09/20 06:03:00;;;;;;;16.75;7.50;;;;;;;9.15;100.00;101932.94;5002566;28;20496;-74
2022/09/20 06:05:41;;;;;;;15.68;8.05;;;;;;;9.12;100.00;101930.53;5018464;28;20030;-74
2022/09/20 06:08:22;;;;;;;24.33;8.10;;;;;;;9.11;100.00;101933.34;4993318;28;20037;-75
2022/09/20 06:11:01;;;;;;;12.52;7.18;;;;;;;8.87;100.00;101897.00;5002401;28;20031;-74
2022/09/20 06:13:48;;;;;;;12.48;6.68;;;;;;;8.83;100.00;101894.72;5001879;28;20125;-75
2022/09/20 06:16:45;;;;;;;17.38;8.10;;;;;;;9.01;100.00;101936.84;4986288;28;20095;-76
2022/09/20 06:19:33;;;;;;;14.25;7.38;;;;;;;9.00;100.00;101934.31;4987465;28;20046;-75
2022/09/20 06:22:21;;;;;;;14.65;7.88;;;;;;;8.93;100.00;101933.16;5004788;28;20111;-75
2022/09/20 06:25:06;;;;;;;13.85;7.20;;;;;;;8.91;100.00;101948.53;5006500;28;20046;-76
2022/09/20 06:27:36;;;;;;;16.13;7.43;;;;;;;8.86;100.00;101940.03;4983534;28;20503;-73
2022/09/20 06:30:05;;;;;;;13.18;6.35;;;;;;;8.67;100.00;101919.38;4990698;28;20033;-74
2022/09/20 06:32:33;;;;;;;11.25;6.93;;;;;;;8.73;100.00;101938.47;4968902;28;20048;-75
2022/09/20 06:35:01;;;;;;;13.43;7.05;;;;;;;8.72;100.00;101946.63;4990088;28;20052;-74
2022/09/20 06:43:22;;;;;;;12.98;6.32;;;;;;;8.61;100.00;101944.88;4992487;28;20038;-76
2022/09/20 06:45:48;;;;;;;14.88;6.68;;;;;;;8.66;100.00;101944.50;4996062;28;20042;-74
2022/09/20 06:48:14;;;;;;;18.05;7.65;;;;;;;8.64;100.00;101943.78;4983246;28;20041;-75
2022/09/20 06:50:44;;;;;;;12.77;6.32;;;;;;;8.71;100.00;101953.00;5001880;28;20538;-75
2022/09/20 06:53:17;;;;;;;14.75;7.18;;;;;;;8.71;100.00;101961.03;4989812;28;20125;-74
2022/09/20 06:55:44;;;;;;;14.38;7.65;;;;;;;8.73;100.00;101961.72;4988288;28;20045;-75
2022/09/20 06:58:10;;;;;;;12.80;7.47;;;;;;;8.82;100.00;101963.63;4983599;28;20034;-75
2022/09/20 07:00:38;;;;;;;16.30;7.72;;;;;;;8.89;100.00;101971.94;5007854;28;20108;-76
2022/09/20 07:03:04;;;;;;;13.43;7.20;;;;;;;8.93;100.00;101962.66;5005388;28;20042;-75
2022/09/20 07:05:30;;;;;;;12.60;7.25;;;;;;;9.05;100.00;101969.63;4976060;28;20080;-74
2022/09/20 07:08:00;;;;;;;13.02;6.82;;;;;;;9.10;100.00;101963.84;5001738;28;20381;-73
2022/09/20 07:10:29;;;;;;;15.15;7.22;;;;;;;9.13;100.00;101963.56;4989384;28;20034;-73
2022/09/20 07:13:00;;;;;;;14.57;6.95;;;;;;;9.18;100.00;101966.69;5002196;28;20091;-75
2022/09/20 07:15:27;;;;;;;15.70;7.68;;;;;;;9.14;100.00;101970.66;5023548;28;20035;-73
2022/09/20 07:17:54;;;;;;;13.45;7.03;;;;;;;9.13;100.00;101963.56;4989310;28;20121;-73
2022/09/20 07:20:20;;;;;;;14.68;7.75;;;;;;;9.12;100.00;101968.09;4999944;28;20057;-75
2022/09/20 07:22:47;;;;;;;11.77;6.28;;;;;;;9.10;100.00;101972.72;5006836;28;20030;-73
2022/09/20 07:25:12;;;;;;;12.63;6.95;;;;;;;9.02;100.00;101960.03;4983476;28;20080;-75
2022/09/20 07:27:38;;;;;;;13.00;7.07;;;;;;;9.05;100.00;101968.75;5005558;28;20070;-72
2022/09/20 07:30:05;;;;;;;11.63;6.28;;;;;;;8.98;100.00;101957.75;5005179;28;20034;-72
2022/09/20 07:32:31;;;;;;;11.00;6.45;;;;;;;9.07;100.00;101962.28;4974356;28;20377;-73
2022/09/20 07:34:56;;;;;;;15.60;7.50;;;;;;;9.08;100.00;101966.69;5021284;28;20084;-75
2022/09/20 07:37:22;;;;;;;10.35;6.10;;;;;;;9.09;100.00;101963.00;4971753;28;20061;-73
2022/09/20 07:39:48;;;;;;;12.70;7.40;;;;;;;9.13;100.00;101966.25;4970774;28;20038;-74
2022/09/20 07:42:14;;;;;;;11.80;6.93;;;;;;;9.54;100.00;101959.00;4973616;28;20084;-76
2022/09/20 07:44:41;;;;;;;13.88;7.30;;;;;;;9.52;100.00;101964.50;4991169;28;20042;-76
2022/09/20 07:47:09;;;;;;;13.85;6.65;;;;;;;9.61;100.00;101958.31;4987736;28;20069;-75
2022/09/20 07:49:35;;;;;;;13.68;7.10;;;;;;;9.88;100.00;101951.38;4989220;28;20037;-75
2022/09/20 07:52:01;;;;;;;12.98;6.78;;;;;;;11.54;100.00;101967.81;4969513;28;20049;-77
2022/09/20 07:54:29;;;;;;;14.77;7.20;;;;;;;13.04;100.00;101963.16;4986971;28;20038;-76
2022/09/20 07:56:54;;;;;;;14.80;7.90;;;;;;;15.22;100.00;101960.78;5001371;28;20400;-73
2022/09/20 07:59:20;;;;;;;14.98;7.68;;;;;;;17.30;91.73;101966.69;4975339;28;20046;-73
2022/09/20 08:01:46;;;;;;;11.38;6.78;;;;;;;18.80;83.63;101958.44;5000399;28;20075;-75
2022/09/20 08:04:12;;;;;;;15.00;7.57;;;;;;;19.94;75.35;101959.66;4991406;28;20081;-74
2022/09/20 08:06:40;;;;;;;9.80;5.15;;;;;;;20.46;69.91;101952.53;4988535;28;20415;-74
2022/09/20 08:09:07;;;;;;;15.23;7.88;;;;;;;19.87;73.02;101956.09;5000572;28;20468;-73
2022/09/20 08:11:34;;;;;;;13.88;7.60;;;;;;;18.79;73.58;101954.03;4974546;28;20103;-75
2022/09/20 08:14:00;;;;;;;15.23;7.40;;;;;;;18.00;78.00;101954.28;4975014;28;20128;-75
2022/09/20 08:16:27;;;;;;;16.23;8.77;;;;;;;18.15;80.37;101954.19;5009010;28;20096;-73
2022/09/20 08:18:58;;;;;;;18.55;8.50;;;;;;;17.99;81.25;101949.84;4990354;28;20045;-73
2022/09/20 08:21:25;;;;;;;15.32;8.20;;;;;;;18.73;75.47;101951.22;4976551;28;20129;-73
2022/09/20 08:23:51;;;;;;;15.25;7.15;;;;;;;19.50;73.33;101948.25;4985894;28;20492;-73
2022/09/20 08:26:19;;;;;;;14.25;7.95;;;;;;;20.36;69.68;101949.38;4991931;28;20040;-78
2022/09/20 08:28:46;;;;;;;13.07;7.97;;;;;;;22.40;65.64;101950.47;4970938;28;20029;-77
2022/09/20 08:31:14;;;;;;;12.23;7.90;;;;;;;24.18;58.01;101951.09;4990550;28;20389;-78
2022/09/20 08:33:41;;;;;;;13.43;8.15;;;;;;;24.66;53.73;101963.78;5008660;28;20468;-78
2022/09/20 08:36:11;;;;;;;12.65;7.00;;;;;;;23.76;55.89;101966.78;5028203;28;20373;-78
2022/09/20 08:38:37;;;;;;;12.07;6.85;;;;;;;22.71;57.31;101948.69;5006247;28;20064;-78
2022/09/20 08:41:06;;;;;;;12.95;7.28;;;;;;;21.76;58.58;101952.44;5008669;28;20065;-78
2022/09/20 08:43:38;;;;;;;14.50;7.07;;;;;;;20.64;60.82;101938.22;4984311;28;20060;-78
2022/09/20 08:46:05;;;;;;;14.55;7.22;;;;;;;20.25;63.34;101959.06;4988839;28;20087;-78
2022/09/20 08:48:32;;;;;;;12.07;7.03;;;;;;;20.03;64.25;101950.25;4974000;28;20046;-78
2022/09/20 08:51:00;;;;;;;13.57;8.05;;;;;;;20.66;62.21;101973.53;4991419;28;20037;-78
2022/09/20 08:53:27;;;;;;;13.55;6.57;;;;;;;20.96;62.02;101961.03;4993465;28;20030;-78
2022/09/20 08:55:56;;;;;;;11.20;6.70;;;;;;;21.91;58.22;101958.47;5008842;28;20037;-79
2022/09/20 08:58:26;;;;;;;11.82;7.10;;;;;;;24.16;53.38;101969.75;4975652;28;20476;-77
2022/09/20 09:00:52;;;;;;;13.73;7.32;;;;;;;25.94;45.66;101973.81;4992143;28;20073;-74
2022/09/20 09:03:18;;;;;;;9.90;6.20;;;;;;;26.85;43.03;101968.03;5009795;28;20446;-74
2022/09/20 09:05:49;;;;;;;10.02;7.55;;;;;;;28.36;41.83;101969.06;5011078;28;20037;-75
2022/09/20 09:08:27;;;;;;;13.73;7.05;;;;;;;28.55;39.57;101965.88;5010577;28;20049;-75
2022/09/20 09:10:58;;;;;;;9.30;6.03;;;;;;;27.32;40.49;101964.78;5006702;28;20068;-76
2022/09/20 09:13:52;;;;;;;9.18;6.03;;;;;;;25.26;43.38;101967.28;5010334;28;20065;-76
2022/09/20 09:16:20;;;;;;;10.32;6.72;;;;;;;23.92;47.68;101966.97;5024224;28;20046;-74
2022/09/20 09:18:48;;;;;;;9.35;6.15;;;;;;;23.59;49.45;101961.09;4993445;28;20038;-76
2022/09/20 09:21:19;;;;;;;8.00;5.63;;;;;;;23.24;50.54;101968.13;5002857;28;20042;-76
2022/09/20 09:24:03;;;;;;;8.75;5.47;;;;;;;22.87;52.74;101959.03;5005850;28;20369;-76
2022/09/20 09:26:39;;;;;;;8.15;4.82;;;;;;;22.56;50.75;101958.09;5006529;28;20095;-76
2022/09/20 09:29:17;;;;;;;7.68;5.35;;;;;;;22.72;50.48;101967.63;5008235;28;20132;-75
2022/09/20 09:31:51;;;;;;;7.70;5.47;;;;;;;23.57;49.78;101963.22;4991220;28;20030;-75
2022/09/20 09:34:29;;;;;;;8.63;5.25;;;;;;;24.01;47.91;101964.69;4978641;28;20080;-78
2022/09/20 09:36:56;;;;;;;7.43;4.60;;;;;;;23.98;47.12;101943.19;4989894;28;20488;-78
2022/09/20 09:39:27;;;;;;;7.28;4.97;;;;;;;25.17;44.62;101956.66;4994894;28;20029;-78
2022/09/20 09:41:59;;;;;;;7.25;4.75;;;;;;;26.90;39.78;101932.22;4973776;28;20369;-78
2022/09/20 09:44:32;;;;;;;7.50;4.70;;;;;;;28.43;38.96;101969.69;4979550;28;20025;-78
2022/09/20 09:46:57;;;;;;;8.18;5.10;;;;;;;29.34;35.29;101967.63;5001423;28;20026;-79
2022/09/20 09:49:26;;;;;;;6.28;4.55;;;;;;;29.81;34.46;101969.41;4979204;28;20036;-78
2022/09/20 09:52:00;;;;;;;8.15;4.75;;;;;;;30.29;33.59;101969.97;5008035;28;20037;-80
2022/09/20 09:54:37;;;;;;;6.32;4.18;;;;;;;30.95;32.15;101962.63;5004854;28;20030;-79
2022/09/20 09:57:19;;;;;;;5.28;3.45;;;;;;;31.01;31.65;101964.25;5008999;28;20091;-80
2022/09/20 10:00:09;;;;;;;5.78;3.60;;;;;;;30.28;32.35;101968.31;5011491;28;20044;-79
2022/09/20 10:03:09;;;;;;;7.05;4.28;;;;;;;29.22;34.38;101959.59;4989802;28;20396;-79
2022/09/20 10:05:43;;;;;;;9.90;6.93;;;;;;;29.97;33.30;101957.22;5009099;28;20033;-78
2022/09/20 10:08:21;;;;;;;6.13;3.85;;;;;;;30.74;32.57;101959.88;4984673;28;20084;-79
2022/09/20 10:11:05;;;;;;;6.25;4.07;;;;;;;31.30;31.46;101965.19;4996789;28;20038;-80
2022/09/20 10:13:34;;;;;;;5.28;3.95;;;;;;;29.79;31.77;101968.84;4992686;28;20041;-79
2022/09/20 10:16:11;;;;;;;5.18;3.50;;;;;;;29.12;33.31;101970.63;5013167;28;20034;-79
2022/09/20 10:19:05;;;;;;;6.55;3.60;;;;;;;29.73;32.49;101958.88;5007201;28;20022;-79
2022/09/20 10:21:47;;;;;;;5.97;3.45;;;;;;;31.07;31.06;101960.34;4987209;28;20121;-78
2022/09/20 10:24:29;;;;;;;;;;;;;;;30.49;30.95;101959.97;5011037;28;20480;-78
2022/09/20 10:27:00;;;;;;;4.63;3.22;;;;;;;28.90;33.38;101956.94;5006944;28;19917;-78
2022/09/20 10:30:08;;;;;;;5.50;3.65;;;;;;;28.08;34.29;101952.78;5001342;28;20319;-81
2022/09/20 10:32:44;;;;;;;6.88;3.95;;;;;;;26.22;37.93;101950.81;4997429;28;20392;-78
2022/09/20 10:35:25;;;;;;;5.28;3.08;;;;;;;24.35;41.88;101945.75;5007073;28;20546;-81
2022/09/20 10:37:53;;;;;;;5.50;3.40;;;;;;;23.49;44.04;101958.91;5009637;28;20083;-79
2022/09/20 10:43:13;;;;;;;5.72;3.03;;;;;;;23.19;44.30;101942.44;5007218;28;20392;-81
2022/09/20 10:43:23;;;;;;;5.47;3.65;;;;;;;23.40;45.10;101952.91;5009316;28;20495;-79
2022/09/20 10:45:55;;;;;;;4.47;2.90;;;;;;;23.37;44.36;101955.28;5011144;28;20037;-80
2022/09/20 10:48:47;;;;;;;5.40;3.67;;;;;;;23.26;44.67;101948.69;5001848;28;20032;-80
2022/09/20 10:51:42;;;;;;;5.43;3.75;;;;;;;23.48;45.32;101938.03;5004187;28;20108;-80
2022/09/20 10:54:25;;;;;;;5.82;3.78;;;;;;;23.48;45.06;101949.84;4967613;28;20080;-80
2022/09/20 10:57:28;;;;;;;4.88;2.80;;;;;;;22.91;45.74;101937.47;4987700;28;20476;-82
2022/09/20 11:00:15;;;;;;;4.80;3.40;;;;;;;22.60;48.34;101948.38;5000467;28;20511;-81
2022/09/20 11:03:19;;;;;;;5.40;2.83;;;;;;;22.83;45.92;101944.94;5011898;28;20423;-80
2022/09/20 11:06:12;;;;;;;6.15;3.08;;;;;;;22.19;47.57;101912.53;5012738;28;20066;-80
2022/09/20 11:08:39;;;;;;;5.30;2.50;;;;;;;22.21;48.02;101951.50;5003728;28;20032;-80
2022/09/20 11:11:11;;;;;;;5.28;3.05;;;;;;;22.19;48.37;101946.25;5008575;28;20029;-81
2022/09/20 11:13:52;;;;;;;4.28;2.83;;;;;;;22.98;47.30;101941.84;5009207;28;20077;-81
2022/09/20 11:16:54;;;;;;;3.08;2.35;;;;;;;24.74;42.51;101943.31;5003228;28;20044;-80
2022/09/20 11:19:27;;;;;;;4.70;3.50;;;;;;;24.33;43.06;101945.13;5026103;28;20103;-81
2022/09/20 11:21:57;;;;;;;5.13;2.85;;;;;;;23.73;43.87;101920.56;5006532;28;20103;-81
2022/09/20 11:24:34;;;;;;;5.13;3.20;;;;;;;22.66;46.05;101940.31;5004501;28;20033;-80
2022/09/20 11:27:05;;;;;;;5.10;2.67;;;;;;;22.29;46.58;101935.59;4988004;28;20046;-80
2022/09/20 11:29:45;;;;;;;3.75;2.70;;;;;;;23.55;43.29;101938.78;4988713;28;20061;-81
2022/09/20 11:32:14;;;;;;;3.65;2.92;;;;;;;25.30;39.98;101939.03;4992613;28;20045;-80
2022/09/20 11:35:05;;;;;;;3.53;2.80;;;;;;;24.23;42.17;101939.38;5007289;28;20460;-81
2022/09/20 11:37:33;;;;;;;3.72;2.60;;;;;;;23.14;44.32;101934.06;5009866;28;20034;-80
2022/09/20 11:40:07;;;;;;;3.40;2.22;;;;;;;22.69;45.35;101937.94;4988128;28;20046;-81
2022/09/20 11:42:35;;;;;;;3.63;2.55;;;;;;;22.20;46.72;101927.91;4975754;28;20065;-79
2022/09/20 11:45:01;;;;;;;5.38;2.80;;;;;;;22.70;45.87;101936.84;4972755;28;20041;-79
2022/09/20 11:47:35;;;;;;;5.38;2.60;;;;;;;23.09;44.25;101936.66;4993078;28;20037;-79
2022/09/20 11:50:28;;;;;;;3.30;2.45;;;;;;;23.91;42.38;101942.47;5000069;28;20046;-79
2022/09/20 11:53:10;;;;;;;5.18;3.63;;;;;;;23.09;43.62;101928.44;4988646;28;20030;-79
2022/09/20 11:56:00;;;;;;;4.68;3.63;;;;;;;22.32;46.08;101935.16;5002514;28;20055;-79
2022/09/20 11:58:26;;;;;;;4.55;3.60;;;;;;;24.41;42.08;101928.28;4990496;28;20465;-78
2022/09/20 12:00:55;;;;;;;4.80;4.00;;;;;;;23.92;43.02;101925.75;5009599;28;20038;-78
2022/09/20 12:03:35;;;;;;;4.88;3.58;;;;;;;23.16;44.28;101930.03;4992047;28;20030;-79
2022/09/20 12:06:03;;;;;;;4.30;3.22;;;;;;;23.60;42.84;101922.41;5004165;28;20042;-79
2022/09/20 12:08:38;;;;;;;5.88;3.33;;;;;;;24.65;42.24;101931.03;4993244;28;20030;-79
2022/09/20 12:11:11;;;;;;;3.90;3.20;;;;;;;27.44;36.20;101929.53;5006358;28;20403;-79